Time;durP1;ratioP1;P1;durP2;ratioP2;P2;SDS_P1;SDS_P2;PMS_P1;PMS_P2;Temp;Humidity;BMP_temperature;BMP_pressure;BME280_temperature;BME280_humidity;BME280_pressure;Samples;Min_cycle;Max_cycle;Signal;HPM_P1;HPM_P2
2024/01/20 00:00:18;;;;;;;9.10;4.50;;;2.40;99.90;;;;;;5018208;28;20503;-60
2024/01/20 00:02:46;;;;;;;5.47;4.20;;;2.40;99.90;;;;;;5020199;28;20491;-61
2024/01/20 00:05:14;;;;;;;5.43;4.43;;;2.50;99.90;;;;;;5018766;28;20796;-61
2024/01/20 00:07:44;;;;;;;6.50;4.40;;;2.50;99.90;;;;;;5019684;28;20474;-61
2024/01/20 00:10:13;;;;;;;5.47;4.10;;;2.50;99.90;;;;;;5018089;28;20494;-61
2024/01/20 00:12:42;;;;;;;5.00;4.50;;;2.50;99.90;;;;;;5016020;28;20535;-62
2024/01/20 00:15:12;;;;;;;6.87;3.90;;;2.50;99.90;;;;;;5021183;28;20478;-61
2024/01/20 00:17:41;;;;;;;8.67;3.93;;;2.60;99.90;;;;;;5021028;28;20471;-61
2024/01/20 00:20:10;;;;;;;7.30;3.77;;;2.60;99.90;;;;;;5016878;28;21709;-61
2024/01/20 00:22:38;;;;;;;8.20;4.30;;;2.60;99.90;;;;;;5026573;28;20595;-61
2024/01/20 00:25:08;;;;;;;7.97;4.47;;;2.60;99.90;;;;;;5024926;28;20475;-60
2024/01/20 00:27:38;;;;;;;5.73;4.03;;;2.60;99.90;;;;;;5023339;28;20488;-60
2024/01/20 00:30:07;;;;;;;7.77;4.27;;;2.60;99.90;;;;;;5022749;28;20494;-60
2024/01/20 00:32:35;;;;;;;6.17;4.37;;;2.60;99.90;;;;;;5029493;28;20524;-61
2024/01/20 00:35:04;;;;;;;6.40;4.27;;;2.70;99.90;;;;;;5022011;28;20544;-61
2024/01/20 00:37:35;;;;;;;6.43;4.33;;;2.60;99.90;;;;;;5018241;28;20478;-61
2024/01/20 00:40:05;;;;;;;5.97;4.47;;;2.60;99.90;;;;;;5019638;28;20467;-61
2024/01/20 00:42:35;;;;;;;5.20;3.73;;;2.60;99.90;;;;;;5006215;28;21265;-61
2024/01/20 00:45:03;;;;;;;5.20;4.17;;;2.60;99.90;;;;;;5021183;28;20471;-61
2024/01/20 00:47:31;;;;;;;5.87;4.23;;;2.60;99.90;;;;;;5022560;28;20463;-60
2024/01/20 00:50:05;;;;;;;6.40;4.20;;;2.70;99.90;;;;;;5022634;28;20509;-61
2024/01/20 00:52:33;;;;;;;4.40;3.90;;;2.70;99.90;;;;;;5016438;28;20605;-60
2024/01/20 00:55:01;;;;;;;9.80;4.37;;;2.60;99.90;;;;;;5023032;28;20475;-62
2024/01/20 00:57:28;;;;;;;13.73;4.57;;;2.60;99.90;;;;;;5023429;28;20554;-61
2024/01/20 00:59:58;;;;;;;6.60;5.20;;;2.60;99.90;;;;;;5018615;28;20481;-60
2024/01/20 01:02:26;;;;;;;7.30;4.30;;;2.60;99.90;;;;;;5019372;28;20497;-61
2024/01/20 01:04:54;;;;;;;6.73;4.50;;;2.60;99.90;;;;;;5020818;28;20948;-61
2024/01/20 01:07:22;;;;;;;6.00;3.90;;;2.60;99.90;;;;;;5018612;28;20618;-61
2024/01/20 01:09:50;;;;;;;6.10;4.40;;;2.50;99.90;;;;;;5017479;28;20534;-61
2024/01/20 01:12:19;;;;;;;6.90;3.90;;;2.60;99.90;;;;;;5020445;28;21001;-61
2024/01/20 01:14:47;;;;;;;4.80;4.27;;;2.50;99.90;;;;;;5022764;28;21071;-61
2024/01/20 01:17:17;;;;;;;5.50;4.23;;;2.60;99.90;;;;;;5018182;28;20491;-61
2024/01/20 01:19:46;;;;;;;6.33;4.83;;;2.60;99.90;;;;;;5021398;28;20471;-61
2024/01/20 01:22:14;;;;;;;6.40;5.57;;;2.60;99.90;;;;;;5017002;28;20484;-61
2024/01/20 01:24:42;;;;;;;7.43;5.17;;;2.60;99.90;;;;;;5023909;28;20925;-61
2024/01/20 01:27:10;;;;;;;5.17;4.70;;;2.60;99.90;;;;;;5020054;28;20968;-61
2024/01/20 01:29:38;;;;;;;7.97;5.07;;;2.60;99.90;;;;;;5023805;28;20544;-61
2024/01/20 01:32:06;;;;;;;6.90;4.80;;;2.60;99.90;;;;;;5020461;28;20486;-61
2024/01/20 01:34:36;;;;;;;6.33;5.70;;;2.60;99.90;;;;;;5019676;28;20476;-61
2024/01/20 01:37:05;;;;;;;6.07;5.40;;;2.60;99.90;;;;;;5021856;28;20593;-61
2024/01/20 01:39:33;;;;;;;7.40;5.40;;;2.60;99.90;;;;;;5015614;28;20487;-61
2024/01/20 01:42:00;;;;;;;6.10;5.50;;;2.60;99.90;;;;;;5021055;28;20519;-61
2024/01/20 01:44:29;;;;;;;6.30;5.50;;;2.60;99.90;;;;;;5017062;28;21099;-60
2024/01/20 01:46:56;;;;;;;7.63;5.60;;;2.60;99.90;;;;;;5021098;28;20566;-61
2024/01/20 01:49:25;;;;;;;8.53;6.50;;;2.60;99.90;;;;;;5016282;28;20467;-61
2024/01/20 01:51:55;;;;;;;7.83;6.60;;;2.60;99.90;;;;;;5008569;28;20499;-61
2024/01/20 01:54:23;;;;;;;10.67;6.87;;;2.60;99.90;;;;;;5017883;28;20930;-61
2024/01/20 01:56:53;;;;;;;7.30;6.20;;;2.60;99.90;;;;;;5016194;28;20468;-61
2024/01/20 01:59:21;;;;;;;8.47;7.60;;;2.60;99.90;;;;;;5020196;28;20495;-61
2024/01/20 02:01:50;;;;;;;10.60;7.50;;;2.60;99.90;;;;;;5021040;28;20579;-60
2024/01/20 02:04:18;;;;;;;9.20;7.90;;;2.60;99.90;;;;;;5036165;28;20471;-60
2024/01/20 02:06:46;;;;;;;8.67;7.30;;;2.60;99.90;;;;;;5024429;28;20474;-61
2024/01/20 02:09:16;;;;;;;11.63;8.00;;;2.60;99.90;;;;;;5016985;28;20503;-61
2024/01/20 02:11:46;;;;;;;8.33;7.53;;;2.60;99.90;;;;;;5013343;28;21023;-61
2024/01/20 02:14:14;;;;;;;11.63;7.93;;;2.60;99.90;;;;;;4982969;28;20471;-60
2024/01/20 02:16:42;;;;;;;9.40;7.70;;;2.50;99.90;;;;;;4992547;28;20475;-61
2024/01/20 02:19:10;;;;;;;9.00;8.10;;;2.50;99.90;;;;;;4989464;28;21111;-61
2024/01/20 02:21:39;;;;;;;10.80;8.03;;;2.50;99.90;;;;;;4985737;28;20494;-61
2024/01/20 02:24:10;;;;;;;10.90;8.90;;;2.40;99.90;;;;;;4986352;28;21106;-61
2024/01/20 02:26:38;;;;;;;12.13;8.80;;;2.40;99.90;;;;;;5000789;28;20475;-61
2024/01/20 02:29:05;;;;;;;12.87;9.70;;;2.40;99.90;;;;;;5019673;28;20650;-61
2024/01/20 02:31:33;;;;;;;11.87;9.17;;;2.40;99.90;;;;;;5013856;28;20508;-61
2024/01/20 02:34:01;;;;;;;13.73;9.80;;;2.40;99.90;;;;;;5020235;28;20945;-60
2024/01/20 02:36:30;;;;;;;11.20;9.87;;;2.30;99.90;;;;;;5014203;28;20482;-61
2024/01/20 02:38:57;;;;;;;10.13;9.13;;;2.30;99.90;;;;;;5014722;28;20554;-61
2024/01/20 02:41:27;;;;;;;11.13;9.33;;;2.30;99.90;;;;;;5014363;28;20486;-61
2024/01/20 02:43:55;;;;;;;11.10;10.00;;;2.30;99.90;;;;;;5014761;28;20493;-61
2024/01/20 02:46:23;;;;;;;12.00;10.67;;;2.30;99.90;;;;;;5009736;28;20467;-60
2024/01/20 02:48:51;;;;;;;11.47;10.37;;;2.30;99.90;;;;;;5017787;28;20482;-61
2024/01/20 02:51:19;;;;;;;11.13;10.00;;;2.30;99.90;;;;;;5018222;28;20499;-61
2024/01/20 02:53:47;;;;;;;13.77;9.53;;;2.30;99.90;;;;;;5014680;28;20541;-60
2024/01/20 02:56:15;;;;;;;14.60;10.90;;;2.20;99.90;;;;;;5016524;28;20468;-61
2024/01/20 02:58:44;;;;;;;17.30;10.20;;;2.20;99.90;;;;;;5016050;28;21974;-61
2024/01/20 03:01:12;;;;;;;13.40;10.53;;;2.20;99.90;;;;;;5016600;28;20582;-61
2024/01/20 03:03:40;;;;;;;13.13;10.27;;;2.20;99.90;;;;;;5022320;28;20467;-61
2024/01/20 03:06:08;;;;;;;12.93;10.67;;;2.20;99.90;;;;;;5019643;28;20474;-61
2024/01/20 03:08:36;;;;;;;10.47;9.43;;;2.30;99.90;;;;;;5016920;28;20507;-61
2024/01/20 03:11:05;;;;;;;11.50;9.90;;;2.30;99.90;;;;;;5017486;28;20580;-62
2024/01/20 03:13:32;;;;;;;10.53;9.30;;;2.30;99.90;;;;;;5009992;28;20554;-60
2024/01/20 03:16:02;;;;;;;13.63;10.30;;;2.30;99.90;;;;;;5016460;28;20555;-60
2024/01/20 03:18:30;;;;;;;11.47;10.27;;;2.20;99.90;;;;;;5017922;28;21058;-60
2024/01/20 03:20:58;;;;;;;12.33;9.77;;;2.20;99.90;;;;;;5015729;28;20596;-60
2024/01/20 03:23:26;;;;;;;12.03;10.10;;;2.20;99.90;;;;;;5015257;28;20506;-62
2024/01/20 03:25:54;;;;;;;12.40;10.37;;;2.20;99.90;;;;;;5016405;28;20480;-62
2024/01/20 03:28:22;;;;;;;17.77;11.27;;;2.20;99.90;;;;;;5017663;28;20462;-63
2024/01/20 03:30:50;;;;;;;14.07;11.20;;;2.20;99.90;;;;;;5020279;28;20487;-62
2024/01/20 03:33:19;;;;;;;14.60;11.83;;;2.20;99.90;;;;;;5019935;28;20713;-63
2024/01/20 03:35:47;;;;;;;14.90;11.50;;;2.20;99.90;;;;;;5019436;28;20483;-62
2024/01/20 03:38:15;;;;;;;14.90;11.50;;;2.20;99.90;;;;;;5025157;28;20471;-62
2024/01/20 03:40:43;;;;;;;12.03;10.83;;;2.10;99.90;;;;;;5018148;28;20565;-61
2024/01/20 03:43:12;;;;;;;13.23;10.80;;;2.10;99.90;;;;;;5019441;28;20498;-62
2024/01/20 03:45:41;;;;;;;12.50;11.30;;;2.10;99.90;;;;;;5022141;28;20832;-62
2024/01/20 03:48:08;;;;;;;13.70;12.10;;;2.10;99.90;;;;;;5020192;28;21098;-62
2024/01/20 03:50:38;;;;;;;12.83;11.30;;;2.10;99.90;;;;;;5020621;28;20851;-62
2024/01/20 03:53:06;;;;;;;15.13;12.00;;;2.10;99.90;;;;;;5016430;28;20513;-62
2024/01/20 03:55:34;;;;;;;16.97;12.53;;;2.10;99.90;;;;;;5019925;28;20489;-62
2024/01/20 03:58:02;;;;;;;14.90;12.20;;;2.10;99.90;;;;;;5021352;28;20561;-62
2024/01/20 04:00:30;;;;;;;13.80;11.47;;;2.10;99.90;;;;;;5016788;28;20562;-62
2024/01/20 04:02:58;;;;;;;13.00;11.70;;;2.10;99.90;;;;;;5024332;28;20486;-62
2024/01/20 04:05:26;;;;;;;16.90;12.10;;;2.10;99.90;;;;;;5021660;28;20562;-62
2024/01/20 04:07:56;;;;;;;15.70;12.70;;;2.10;99.90;;;;;;5023348;28;20479;-62
2024/01/20 04:10:24;;;;;;;15.20;12.87;;;2.10;99.90;;;;;;5015625;28;20600;-62
2024/01/20 04:12:52;;;;;;;13.90;12.20;;;2.10;99.90;;;;;;5020846;28;21076;-62
2024/01/20 04:15:20;;;;;;;15.53;13.03;;;2.10;99.90;;;;;;5039285;28;20598;-62
2024/01/20 04:17:48;;;;;;;17.40;13.60;;;2.10;99.90;;;;;;5042509;28;20475;-62
2024/01/20 04:20:16;;;;;;;16.93;13.93;;;2.00;99.90;;;;;;5024434;28;20570;-62
2024/01/20 04:22:44;;;;;;;16.90;14.00;;;2.10;99.90;;;;;;5016821;28;20502;-62
2024/01/20 04:25:12;;;;;;;16.70;13.57;;;2.10;99.90;;;;;;5017235;28;20479;-62
2024/01/20 04:27:41;;;;;;;15.83;13.53;;;2.00;99.90;;;;;;5021204;28;21001;-62
2024/01/20 04:30:10;;;;;;;16.57;13.83;;;2.00;99.90;;;;;;5020341;28;20552;-62
2024/01/20 04:32:38;;;;;;;18.93;15.13;;;2.00;99.90;;;;;;5019906;28;20499;-62
2024/01/20 04:35:07;;;;;;;16.20;14.50;;;2.00;99.90;;;;;;5020114;28;20516;-62
2024/01/20 04:37:36;;;;;;;18.33;14.80;;;2.00;99.90;;;;;;5018100;28;20483;-62
2024/01/20 04:40:05;;;;;;;17.03;15.17;;;2.00;99.90;;;;;;5015734;28;21115;-62
2024/01/20 04:42:34;;;;;;;17.33;15.43;;;2.00;99.90;;;;;;5011630;28;20577;-62
2024/01/20 04:45:04;;;;;;;18.10;14.33;;;2.10;99.90;;;;;;5017712;28;21328;-62
2024/01/20 04:47:33;;;;;;;18.33;15.63;;;2.10;99.90;;;;;;5016218;28;20885;-62
2024/01/20 04:50:01;;;;;;;16.27;14.63;;;2.10;99.90;;;;;;5016079;28;20470;-61
2024/01/20 04:52:29;;;;;;;18.27;15.30;;;2.10;99.90;;;;;;5020650;28;20495;-62
2024/01/20 04:54:57;;;;;;;21.07;18.90;;;2.10;99.90;;;;;;5019074;28;20476;-62
2024/01/20 04:57:24;;;;;;;18.80;16.23;;;2.10;99.90;;;;;;5018606;28;20530;-62
2024/01/20 04:59:54;;;;;;;19.63;17.53;;;2.10;99.90;;;;;;5019862;28;20463;-62
2024/01/20 05:02:22;;;;;;;18.43;16.43;;;2.10;99.90;;;;;;5015984;28;20570;-62
2024/01/20 05:04:50;;;;;;;21.50;17.70;;;2.10;99.90;;;;;;5024774;28;20484;-62
2024/01/20 05:07:18;;;;;;;18.93;16.93;;;2.00;99.90;;;;;;5022991;28;20467;-62
2024/01/20 05:09:46;;;;;;;19.17;17.17;;;2.00;99.90;;;;;;5015223;28;20955;-62
2024/01/20 05:12:14;;;;;;;21.10;17.93;;;2.00;99.90;;;;;;5021994;28;20578;-62
2024/01/20 05:14:42;;;;;;;19.93;17.70;;;2.10;99.90;;;;;;5016557;28;20614;-61
2024/01/20 05:17:11;;;;;;;21.03;18.83;;;2.10;99.90;;;;;;5024910;28;20481;-62
2024/01/20 05:19:39;;;;;;;20.43;18.10;;;2.10;99.90;;;;;;5015044;28;20510;-62
2024/01/20 05:22:08;;;;;;;21.13;18.40;;;2.10;99.90;;;;;;5023418;28;21024;-62
2024/01/20 05:24:36;;;;;;;22.00;19.50;;;2.10;99.90;;;;;;5014791;28;20486;-62
2024/01/20 05:27:05;;;;;;;21.40;18.67;;;2.00;99.90;;;;;;5020403;28;20921;-63
2024/01/20 05:29:33;;;;;;;23.03;18.80;;;2.10;99.90;;;;;;5020155;28;20583;-62
2024/01/20 05:32:01;;;;;;;22.40;19.30;;;2.10;99.90;;;;;;5019115;28;20518;-62
2024/01/20 05:34:30;;;;;;;21.20;18.50;;;2.10;99.90;;;;;;5013907;28;20487;-61
2024/01/20 05:36:58;;;;;;;21.50;17.70;;;2.10;99.90;;;;;;5023441;28;20552;-62
2024/01/20 05:39:26;;;;;;;21.63;17.70;;;2.00;99.90;;;;;;5015663;28;20708;-62
2024/01/20 05:41:55;;;;;;;22.07;18.63;;;2.10;99.90;;;;;;5019368;28;20491;-62
2024/01/20 05:44:23;;;;;;;20.50;18.03;;;2.10;99.90;;;;;;5015889;28;20471;-62
2024/01/20 05:46:51;;;;;;;20.57;18.47;;;2.00;99.90;;;;;;5010992;28;20633;-62
2024/01/20 05:49:19;;;;;;;21.57;18.07;;;2.00;99.90;;;;;;5018515;28;20499;-62
2024/01/20 05:51:48;;;;;;;21.20;18.30;;;2.00;99.90;;;;;;5016101;28;20905;-62
2024/01/20 05:54:16;;;;;;;20.70;18.37;;;1.90;99.90;;;;;;5019393;28;20858;-62
2024/01/20 05:56:44;;;;;;;21.33;17.80;;;1.90;99.90;;;;;;5020325;28;20479;-62
2024/01/20 05:59:12;;;;;;;19.70;17.77;;;1.90;99.90;;;;;;5015151;28;20476;-62
2024/01/20 06:01:40;;;;;;;21.93;19.30;;;1.80;99.90;;;;;;5016228;28;20780;-62
2024/01/20 06:04:08;;;;;;;20.70;18.50;;;1.80;99.90;;;;;;5018865;28;20502;-62
2024/01/20 06:06:36;;;;;;;21.23;18.60;;;1.80;99.90;;;;;;5017984;28;20826;-61
2024/01/20 06:09:06;;;;;;;20.57;17.60;;;1.80;99.90;;;;;;5023935;28;20482;-62
2024/01/20 06:11:34;;;;;;;19.70;17.73;;;1.80;99.90;;;;;;5013567;28;20495;-62
2024/01/20 06:14:02;;;;;;;25.13;18.97;;;1.70;99.90;;;;;;5016669;28;20495;-61
2024/01/20 06:16:30;;;;;;;24.10;18.87;;;1.70;99.90;;;;;;5021284;28;20475;-62
2024/01/20 06:18:58;;;;;;;20.03;17.87;;;1.70;99.90;;;;;;5019971;28;20459;-62
2024/01/20 06:21:26;;;;;;;21.37;18.10;;;1.70;99.90;;;;;;5018273;28;20491;-63
2024/01/20 06:23:54;;;;;;;20.03;18.00;;;1.80;99.90;;;;;;5018345;28;20487;-62
2024/01/20 06:26:23;;;;;;;20.70;18.27;;;1.80;99.90;;;;;;5012971;28;20476;-64
2024/01/20 06:28:51;;;;;;;19.40;17.17;;;1.70;99.90;;;;;;5035773;28;20557;-60
2024/01/20 06:31:23;;;;;;;20.00;17.90;;;1.70;99.90;;;;;;5038365;28;20547;-60
2024/01/20 06:33:52;;;;;;;21.63;17.70;;;1.70;99.90;;;;;;5016214;28;20487;-61
2024/01/20 06:36:21;;;;;;;18.97;16.63;;;1.70;99.90;;;;;;5021904;28;20583;-61
2024/01/20 06:38:49;;;;;;;24.10;18.63;;;1.70;99.90;;;;;;5021184;28;20478;-60
2024/01/20 06:41:17;;;;;;;20.97;18.03;;;1.70;99.90;;;;;;5017069;28;20495;-61
2024/01/20 06:43:47;;;;;;;19.73;17.20;;;1.70;99.90;;;;;;5019609;28;20569;-61
2024/01/20 06:46:15;;;;;;;22.97;17.50;;;1.70;99.90;;;;;;5017506;28;20499;-60
2024/01/20 06:48:43;;;;;;;23.87;19.00;;;1.70;99.90;;;;;;5012338;28;20536;-61
2024/01/20 06:51:14;;;;;;;19.90;17.60;;;1.70;99.90;;;;;;5019287;28;20560;-61
2024/01/20 06:53:43;;;;;;;20.33;17.47;;;1.70;99.90;;;;;;5013941;28;20597;-61
2024/01/20 06:56:12;;;;;;;20.57;16.63;;;1.70;99.90;;;;;;5019360;28;20471;-61
2024/01/20 06:58:40;;;;;;;21.90;17.93;;;1.70;99.90;;;;;;5019943;28;20471;-61
2024/01/20 07:01:10;;;;;;;19.77;16.83;;;1.70;99.90;;;;;;5020712;28;20493;-61
2024/01/20 07:03:38;;;;;;;19.67;17.63;;;1.70;99.90;;;;;;5013204;28;20475;-60
2024/01/20 07:06:07;;;;;;;23.00;18.80;;;1.70;99.90;;;;;;5023300;28;20482;-61
2024/01/20 07:08:35;;;;;;;19.03;17.00;;;1.70;99.90;;;;;;5023893;28;20471;-61
2024/01/20 07:11:08;;;;;;;25.00;17.47;;;1.60;99.90;;;;;;5014123;28;20487;-62
2024/01/20 07:13:37;;;;;;;18.50;16.47;;;1.60;99.90;;;;;;5024051;28;20592;-60
2024/01/20 07:16:11;;;;;;;22.43;18.37;;;1.60;99.90;;;;;;5019753;28;20481;-61
2024/01/20 07:18:39;;;;;;;25.50;18.40;;;1.60;99.90;;;;;;5015697;28;20516;-61
2024/01/20 07:21:07;;;;;;;22.80;17.63;;;1.60;99.90;;;;;;5023323;28;20577;-61
2024/01/20 07:23:35;;;;;;;22.53;18.40;;;1.60;99.90;;;;;;5020087;28;20463;-60
2024/01/20 07:26:03;;;;;;;19.83;17.70;;;1.60;99.90;;;;;;5019133;28;20570;-61
2024/01/20 07:28:32;;;;;;;25.67;18.30;;;1.60;99.90;;;;;;5016322;28;21045;-60
2024/01/20 07:30:59;;;;;;;23.50;17.90;;;1.60;99.90;;;;;;5018133;28;20490;-60
2024/01/20 07:33:29;;;;;;;21.43;18.00;;;1.60;99.90;;;;;;5013481;28;20995;-60
2024/01/20 07:35:57;;;;;;;22.63;18.13;;;1.50;99.90;;;;;;5019850;28;20507;-60
2024/01/20 07:38:26;;;;;;;23.53;18.20;;;1.50;99.90;;;;;;5026641;28;20481;-61
2024/01/20 07:40:54;;;;;;;21.80;16.97;;;1.50;99.90;;;;;;5016260;28;20565;-60
2024/01/20 07:43:22;;;;;;;24.77;17.57;;;1.50;99.90;;;;;;5021776;28;20509;-61
2024/01/20 07:45:53;;;;;;;20.00;17.90;;;1.50;99.90;;;;;;5022867;28;21786;-60
2024/01/20 07:48:22;;;;;;;19.30;16.97;;;1.50;99.90;;;;;;5001410;28;20471;-60
2024/01/20 07:50:51;;;;;;;22.97;17.73;;;1.50;99.90;;;;;;5012164;28;20482;-60
2024/01/20 07:53:19;;;;;;;21.13;17.70;;;1.50;99.90;;;;;;5014435;28;20508;-62
2024/01/20 07:59:35;;;;;;;21.57;17.43;;;1.50;99.90;;;;;;5009860;28;20560;-60
2024/01/20 08:02:03;;;;;;;22.40;16.77;;;1.50;99.90;;;;;;5012740;28;21086;-61
2024/01/20 08:04:32;;;;;;;24.10;18.27;;;1.50;99.90;;;;;;5010208;28;20634;-61
2024/01/20 08:07:02;;;;;;;19.93;16.37;;;1.50;99.90;;;;;;5003747;28;20471;-61
2024/01/20 08:09:30;;;;;;;22.00;18.17;;;1.50;99.90;;;;;;5015827;28;20475;-60
2024/01/20 08:11:58;;;;;;;23.00;17.20;;;1.50;99.90;;;;;;5003306;28;20490;-61
2024/01/20 08:14:26;;;;;;;23.53;18.77;;;1.50;99.90;;;;;;5006375;28;20499;-61
2024/01/20 08:16:54;;;;;;;23.37;18.70;;;1.50;99.90;;;;;;4999320;28;21353;-61
2024/01/20 08:19:22;;;;;;;25.10;17.03;;;1.50;99.90;;;;;;5011751;28;20467;-61
2024/01/20 08:21:50;;;;;;;21.27;17.10;;;1.50;99.90;;;;;;5014116;28;20535;-60
2024/01/20 08:24:20;;;;;;;20.10;16.70;;;1.50;99.90;;;;;;5006916;28;21121;-61
2024/01/20 08:26:48;;;;;;;21.00;17.03;;;1.50;99.90;;;;;;5005496;28;20558;-61
2024/01/20 08:29:18;;;;;;;22.77;16.80;;;1.50;99.90;;;;;;5012669;28;20475;-61
2024/01/20 08:31:46;;;;;;;22.27;16.77;;;1.50;99.90;;;;;;5010561;28;21151;-61
2024/01/20 08:34:14;;;;;;;22.10;16.30;;;1.50;99.90;;;;;;5010413;28;21043;-59
2024/01/20 08:36:42;;;;;;;22.90;16.50;;;1.50;99.90;;;;;;5010410;28;20633;-61
2024/01/20 08:39:11;;;;;;;22.30;16.87;;;1.50;99.90;;;;;;5016215;28;21051;-61
2024/01/20 08:41:41;;;;;;;21.57;17.23;;;1.50;99.90;;;;;;5014980;28;20489;-61
2024/01/20 08:44:09;;;;;;;22.03;16.40;;;1.60;99.90;;;;;;5038229;28;20535;-60
2024/01/20 08:46:37;;;;;;;23.07;15.67;;;1.60;99.90;;;;;;5036182;28;20814;-61
2024/01/20 08:49:05;;;;;;;20.80;16.03;;;1.70;99.90;;;;;;5015179;28;20468;-61
2024/01/20 08:51:33;;;;;;;26.47;17.07;;;1.70;99.90;;;;;;5019032;28;20487;-61
2024/01/20 08:54:01;;;;;;;25.80;16.57;;;1.70;99.90;;;;;;5020314;28;20545;-61
2024/01/20 08:56:29;;;;;;;23.50;15.37;;;1.70;99.90;;;;;;5016920;28;20475;-60
2024/01/20 08:59:00;;;;;;;25.30;16.20;;;1.70;99.90;;;;;;5016801;28;20472;-61
2024/01/20 09:01:28;;;;;;;21.53;14.83;;;1.80;99.90;;;;;;5015403;28;20587;-61
2024/01/20 09:03:56;;;;;;;23.60;16.00;;;1.80;99.90;;;;;;5025033;28;20479;-61
2024/01/20 09:06:24;;;;;;;23.13;16.20;;;1.90;99.90;;;;;;5022719;28;20479;-61
2024/01/20 09:08:53;;;;;;;27.73;15.83;;;2.00;99.90;;;;;;5020380;28;20508;-61
2024/01/20 09:11:21;;;;;;;21.20;14.87;;;2.00;99.90;;;;;;5008887;28;20493;-61
2024/01/20 09:13:49;;;;;;;19.40;14.83;;;2.00;99.90;;;;;;5016465;28;20590;-61
2024/01/20 09:16:18;;;;;;;24.93;15.17;;;2.10;99.90;;;;;;4996224;28;20581;-61
2024/01/20 09:18:46;;;;;;;21.00;15.07;;;2.10;99.90;;;;;;5012917;28;20558;-61
2024/01/20 09:21:14;;;;;;;25.63;15.60;;;2.20;99.90;;;;;;5006635;28;21997;-61
2024/01/20 09:23:43;;;;;;;20.67;14.50;;;2.20;99.90;;;;;;5008053;28;20486;-60
2024/01/20 09:26:11;;;;;;;20.20;14.33;;;2.20;99.90;;;;;;5008155;28;20469;-61
2024/01/20 09:28:39;;;;;;;25.00;15.20;;;2.30;99.90;;;;;;5005167;28;20467;-61
2024/01/20 09:31:07;;;;;;;25.37;15.23;;;2.30;99.90;;;;;;5003939;28;20483;-61
2024/01/20 09:33:36;;;;;;;19.83;13.97;;;2.30;99.90;;;;;;5006065;28;20525;-61
2024/01/20 09:36:05;;;;;;;20.23;13.60;;;2.40;99.90;;;;;;5003402;28;20581;-61
2024/01/20 09:38:33;;;;;;;20.30;14.20;;;2.40;99.90;;;;;;5002808;28;21149;-60
2024/01/20 09:41:01;;;;;;;23.00;14.67;;;2.40;99.90;;;;;;5001551;28;20653;-61
2024/01/20 09:43:30;;;;;;;21.20;14.00;;;2.50;99.90;;;;;;5007552;28;20482;-60
2024/01/20 09:46:00;;;;;;;21.83;14.10;;;2.50;99.90;;;;;;4996786;28;20466;-60
2024/01/20 09:48:28;;;;;;;25.47;14.17;;;2.50;99.90;;;;;;4998326;28;20507;-61
2024/01/20 09:50:58;;;;;;;20.03;13.17;;;2.60;99.90;;;;;;5001061;28;20502;-61
2024/01/20 09:53:26;;;;;;;21.10;13.17;;;2.70;99.90;;;;;;5001706;28;20489;-62
2024/01/20 09:55:56;;;;;;;23.10;14.57;;;2.70;99.90;;;;;;5000993;28;20499;-61
2024/01/20 09:58:24;;;;;;;24.00;15.30;;;2.80;99.90;;;;;;5007116;28;20561;-61
2024/01/20 10:00:53;;;;;;;22.13;14.40;;;2.80;99.90;;;;;;4999313;28;20498;-61
2024/01/20 10:03:25;;;;;;;24.57;13.90;;;2.90;99.90;;;;;;5008335;28;20576;-60
2024/01/20 10:05:53;;;;;;;20.93;13.37;;;2.90;99.90;;;;;;5007917;28;20463;-62
2024/01/20 10:08:22;;;;;;;21.80;13.27;;;2.90;99.90;;;;;;5010058;28;20850;-61
2024/01/20 10:11:01;;;;;;;21.47;13.67;;;3.00;99.90;;;;;;5003590;28;21202;-61
2024/01/20 10:13:29;;;;;;;22.60;13.90;;;3.00;99.90;;;;;;5002480;28;20477;-62
2024/01/20 10:15:58;;;;;;;22.60;13.70;;;3.10;99.90;;;;;;5005953;28;20594;-61
2024/01/20 10:18:26;;;;;;;22.57;13.57;;;3.10;99.90;;;;;;5005685;28;20467;-60
2024/01/20 10:21:03;;;;;;;18.53;12.67;;;3.10;99.90;;;;;;5000188;28;20588;-61
2024/01/20 10:23:35;;;;;;;24.77;13.20;;;3.20;99.90;;;;;;5010849;28;22350;-62
2024/01/20 10:26:03;;;;;;;25.60;14.30;;;3.10;99.90;;;;;;5008992;28;20569;-62
2024/01/20 10:28:32;;;;;;;20.47;13.80;;;3.10;99.90;;;;;;5011159;28;20481;-61
2024/01/20 10:31:07;;;;;;;19.20;13.07;;;3.10;99.90;;;;;;5004250;28;20561;-61
2024/01/20 10:33:35;;;;;;;21.00;12.40;;;3.20;99.90;;;;;;5004973;28;20471;-61
2024/01/20 10:36:04;;;;;;;22.10;14.00;;;3.20;99.90;;;;;;5013815;28;20491;-60
2024/01/20 10:38:38;;;;;;;22.20;13.50;;;3.30;99.90;;;;;;5008506;28;20950;-61
2024/01/20 10:41:08;;;;;;;18.30;12.17;;;3.40;99.90;;;;;;5000038;28;20510;-60
2024/01/20 10:43:42;;;;;;;21.30;13.80;;;3.40;99.90;;;;;;4994491;28;20486;-60
2024/01/20 10:46:18;;;;;;;17.70;12.43;;;3.50;99.90;;;;;;5002727;28;20502;-59
2024/01/20 10:48:51;;;;;;;20.67;12.57;;;3.60;99.90;;;;;;5005387;28;20477;-62
2024/01/20 10:51:26;;;;;;;15.83;12.23;;;3.70;99.90;;;;;;5010312;28;20507;-62
2024/01/20 10:53:56;;;;;;;18.03;12.30;;;3.80;99.90;;;;;;5007539;28;21093;-61
2024/01/20 10:56:25;;;;;;;15.77;10.63;;;3.90;99.90;;;;;;5009029;28;20586;-61
2024/01/20 10:59:00;;;;;;;17.23;11.77;;;4.00;99.90;;;;;;5016845;28;20494;-61
2024/01/20 11:01:29;;;;;;;17.80;11.70;;;4.00;99.90;;;;;;5020549;28;20510;-61
2024/01/20 11:03:57;;;;;;;15.97;11.13;;;4.00;99.90;;;;;;5022872;28;20487;-61
2024/01/20 11:06:25;;;;;;;18.60;11.43;;;3.90;99.90;;;;;;5013703;28;20539;-62
2024/01/20 11:08:55;;;;;;;18.23;11.70;;;3.90;99.90;;;;;;4999892;28;20477;-61
2024/01/20 11:11:34;;;;;;;18.10;12.27;;;3.90;99.90;;;;;;5008181;28;20475;-62
2024/01/20 11:14:03;;;;;;;16.80;10.70;;;3.90;99.90;;;;;;5005740;28;20483;-60
2024/01/20 11:16:33;;;;;;;16.23;10.83;;;3.90;99.90;;;;;;5004856;28;20611;-61
2024/01/20 11:19:08;;;;;;;15.93;11.00;;;3.90;99.90;;;;;;5017468;28;20844;-62
2024/01/20 11:21:36;;;;;;;17.43;10.93;;;4.00;99.90;;;;;;5007012;28;21126;-61
2024/01/20 11:24:07;;;;;;;17.97;12.07;;;4.10;99.90;;;;;;5022431;28;20486;-62
2024/01/20 11:26:38;;;;;;;15.10;11.40;;;4.00;99.90;;;;;;5024144;28;20493;-60
2024/01/20 11:29:08;;;;;;;15.50;10.63;;;4.00;99.90;;;;;;5006853;28;21050;-62
2024/01/20 11:31:36;;;;;;;14.23;10.60;;;4.10;99.90;;;;;;5007588;28;21343;-62
2024/01/20 11:34:05;;;;;;;14.53;10.70;;;4.10;99.90;;;;;;4991462;28;20481;-62
2024/01/20 11:36:35;;;;;;;15.37;10.80;;;4.20;99.90;;;;;;4987658;28;20496;-63
2024/01/20 11:39:05;;;;;;;21.40;10.83;;;4.20;99.90;;;;;;4983830;28;20586;-64
2024/01/20 11:41:34;;;;;;;17.57;10.80;;;4.30;99.90;;;;;;4982852;28;21522;-61
2024/01/20 11:44:02;;;;;;;16.17;10.40;;;4.20;99.90;;;;;;4986668;28;21074;-65
2024/01/20 11:46:31;;;;;;;18.83;11.07;;;4.20;99.90;;;;;;5006601;28;20479;-64
2024/01/20 11:48:59;;;;;;;15.97;11.00;;;4.30;99.90;;;;;;5003389;28;20532;-65
2024/01/20 11:51:27;;;;;;;17.60;10.97;;;4.30;99.90;;;;;;5005928;28;20495;-68
2024/01/20 11:53:55;;;;;;;16.43;10.87;;;4.30;99.90;;;;;;5004204;28;20475;-65
2024/01/20 11:56:24;;;;;;;17.57;10.73;;;4.20;99.90;;;;;;5015432;28;20553;-65
2024/01/20 11:58:53;;;;;;;14.73;9.90;;;4.20;99.90;;;;;;5016929;28;20491;-65
2024/01/20 12:01:20;;;;;;;17.40;10.30;;;4.20;99.90;;;;;;5018940;28;20482;-65
2024/01/20 12:03:48;;;;;;;16.30;10.53;;;4.30;99.90;;;;;;5015820;28;20467;-65
2024/01/20 12:06:17;;;;;;;14.57;10.00;;;4.30;99.90;;;;;;5016590;28;21026;-65
2024/01/20 12:08:46;;;;;;;17.60;10.23;;;4.40;99.90;;;;;;5019385;28;20493;-64
2024/01/20 12:11:20;;;;;;;15.43;9.97;;;4.50;99.90;;;;;;5018399;28;20478;-65
2024/01/20 12:13:50;;;;;;;15.20;9.83;;;4.50;99.90;;;;;;5019072;28;20493;-64
2024/01/20 12:16:19;;;;;;;15.60;10.07;;;4.60;99.90;;;;;;5015216;28;20579;-63
2024/01/20 12:18:47;;;;;;;16.20;9.93;;;4.50;99.90;;;;;;5015573;28;20562;-61
2024/01/20 12:21:17;;;;;;;15.70;9.67;;;4.50;99.90;;;;;;5008733;28;20499;-62
2024/01/20 12:23:45;;;;;;;13.87;10.00;;;4.40;99.90;;;;;;5021881;28;20510;-61
2024/01/20 12:26:13;;;;;;;15.80;10.77;;;4.40;99.90;;;;;;5014734;28;20567;-61
2024/01/20 12:28:42;;;;;;;16.03;10.57;;;4.30;99.90;;;;;;5004080;28;20571;-60
2024/01/20 12:31:11;;;;;;;17.67;9.93;;;4.30;99.90;;;;;;5019425;28;20498;-60
2024/01/20 12:33:44;;;;;;;14.90;10.47;;;4.20;99.90;;;;;;5014090;28;20471;-61
2024/01/20 12:36:12;;;;;;;17.80;11.37;;;4.20;99.90;;;;;;5011938;28;20487;-60
2024/01/20 12:38:40;;;;;;;15.37;10.17;;;4.30;99.90;;;;;;5011924;28;20979;-59
2024/01/20 12:41:07;;;;;;;17.50;10.60;;;4.40;99.90;;;;;;5019814;28;20582;-61
2024/01/20 12:43:36;;;;;;;18.10;10.90;;;4.50;99.90;;;;;;5018394;28;20467;-61
2024/01/20 12:46:04;;;;;;;17.77;11.10;;;4.60;99.90;;;;;;5021538;28;20983;-60
2024/01/20 12:48:33;;;;;;;17.80;11.70;;;4.70;99.90;;;;;;5016751;28;20498;-61
2024/01/20 12:51:01;;;;;;;17.60;11.83;;;4.70;99.90;;;;;;5016297;28;20568;-61